createdAt,value
2023-11-23T00:02:09.449Z,18.42
2023-11-23T00:04:39.841Z,18.16
2023-11-23T00:07:08.476Z,18.64
2023-11-23T00:09:37.319Z,18.81
2023-11-23T00:12:07.021Z,18.88
2023-11-23T00:14:35.472Z,18.54
2023-11-23T00:17:03.943Z,18.52
2023-11-23T00:19:32.377Z,18.74
2023-11-23T00:22:03.612Z,18.24
2023-11-23T00:24:32.401Z,18.16
2023-11-23T00:27:00.905Z,18.51
2023-11-23T00:29:29.653Z,18.42
2023-11-23T00:31:58.847Z,18.74
2023-11-23T00:34:27.486Z,18.53
2023-11-23T00:36:57.463Z,18.68
2023-11-23T00:39:27.731Z,18.15
2023-11-23T00:41:56.604Z,18.48
2023-11-23T00:44:25.152Z,18.40
2023-11-23T00:46:53.844Z,18.39
2023-11-23T00:49:23.224Z,18.61
2023-11-23T00:51:51.718Z,18.56
2023-11-23T00:54:21.464Z,18.64
2023-11-23T00:56:52.241Z,18.45
2023-11-23T00:59:20.515Z,18.42
2023-11-23T01:01:49.424Z,18.64
2023-11-23T01:04:18.023Z,18.44
2023-11-23T01:06:47.353Z,18.76
2023-11-23T01:09:16.769Z,18.44
2023-11-23T01:11:45.550Z,18.71
2023-11-23T01:14:15.749Z,18.49
2023-11-23T01:16:44.224Z,18.22
2023-11-23T01:19:12.953Z,18.62
2023-11-23T01:21:41.688Z,18.42
2023-11-23T01:24:11.309Z,18.90
2023-11-23T01:26:40.084Z,18.51
2023-11-23T01:29:08.813Z,19.11
2023-11-23T01:31:39.249Z,18.45
2023-11-23T01:34:07.603Z,18.86
2023-11-23T01:36:37.017Z,18.87
2023-11-23T01:39:06.284Z,18.85
2023-11-23T01:41:34.903Z,18.76
2023-11-23T01:44:03.485Z,19.03
2023-11-23T01:46:32.773Z,19.02
2023-11-23T01:49:03.772Z,18.35
2023-11-23T01:51:32.913Z,18.79
2023-11-23T01:54:01.470Z,19.22
2023-11-23T01:56:30.861Z,18.93
2023-11-23T01:59:00.541Z,18.98
2023-11-23T02:01:29.312Z,19.40
2023-11-23T02:03:57.622Z,19.18
2023-11-23T02:06:27.604Z,18.57
2023-11-23T02:08:55.952Z,19.22
2023-11-23T02:11:24.656Z,19.13
2023-11-23T02:13:52.940Z,19.08
2023-11-23T02:16:22.611Z,19.29
2023-11-23T02:18:50.886Z,19.72
2023-11-23T02:21:19.437Z,19.30
2023-11-23T02:23:49.185Z,19.67
2023-11-23T02:26:19.470Z,19.27
2023-11-23T02:28:48.074Z,19.17
2023-11-23T02:31:16.504Z,18.88
2023-11-23T02:33:44.800Z,19.38
2023-11-23T02:36:13.845Z,19.13
2023-11-23T02:38:42.198Z,19.25
2023-11-23T02:41:10.784Z,19.31
2023-11-23T02:43:40.768Z,19.16
2023-11-23T02:46:09.329Z,19.58
2023-11-23T02:48:37.721Z,19.70
2023-11-23T02:51:06.307Z,19.69
2023-11-23T02:53:44.837Z,19.61
2023-11-23T02:56:13.790Z,19.58
2023-11-23T02:58:43.477Z,19.31
2023-11-23T03:01:11.977Z,19.44
2023-11-23T03:03:40.625Z,19.63
2023-11-23T03:06:10.505Z,19.52
2023-11-23T03:08:38.989Z,19.53
2023-11-23T03:11:07.964Z,20.15
2023-11-23T03:13:36.760Z,19.74
2023-11-23T03:16:07.426Z,19.44
2023-11-23T03:18:36.143Z,19.95
2023-11-23T03:21:05.095Z,19.40
2023-11-23T03:23:33.319Z,19.66
2023-11-23T03:26:02.019Z,19.60
2023-11-23T03:28:30.333Z,19.65
2023-11-23T03:30:59.056Z,19.84
2023-11-23T03:33:28.956Z,19.32
2023-11-23T03:35:58.152Z,19.75
2023-11-23T03:38:26.381Z,19.26
2023-11-23T03:40:55.196Z,19.54
2023-11-23T03:43:23.514Z,19.30
2023-11-23T03:45:52.104Z,19.18
2023-11-23T03:48:21.090Z,19.34
2023-11-23T03:50:51.228Z,19.61
2023-11-23T03:53:19.391Z,19.31
2023-11-23T03:55:49.070Z,19.50
2023-11-23T03:58:17.224Z,19.45
2023-11-23T04:00:46.073Z,19.45
2023-11-23T04:03:14.725Z,19.31
2023-11-23T04:05:44.093Z,19.19
2023-11-23T04:08:13.890Z,19.38
2023-11-23T04:10:42.591Z,19.50
2023-11-23T04:13:13.909Z,19.41
2023-11-23T04:15:42.339Z,19.78
2023-11-23T04:18:10.648Z,19.69
2023-11-23T04:20:39.249Z,19.34
2023-11-23T04:23:07.509Z,19.40
2023-11-23T04:25:37.517Z,19.27
2023-11-23T04:28:05.880Z,19.52
2023-11-23T04:30:34.414Z,19.64
2023-11-23T04:33:02.963Z,19.32
2023-11-23T04:35:31.557Z,19.38
2023-11-23T04:38:00.654Z,19.64
2023-11-23T04:40:29.148Z,19.70
2023-11-23T04:42:58.778Z,19.58
2023-11-23T04:45:27.293Z,19.88
2023-11-23T04:47:55.677Z,19.83
2023-11-23T04:50:24.519Z,20.04
2023-11-23T04:52:52.833Z,19.80
2023-11-23T04:55:21.740Z,20.02
2023-11-23T04:57:51.695Z,19.91
2023-11-23T05:00:26.331Z,19.67
2023-11-23T05:02:55.822Z,19.91
2023-11-23T05:05:24.411Z,19.77
2023-11-23T05:07:52.691Z,20.09
2023-11-23T05:10:21.852Z,20.33
2023-11-23T05:12:52.819Z,19.89
2023-11-23T05:15:22.744Z,19.07
2023-11-23T05:17:51.079Z,20.11
2023-11-23T05:20:20.104Z,19.85
2023-11-23T05:22:48.235Z,19.85
2023-11-23T05:25:16.823Z,19.75
2023-11-23T05:27:45.013Z,19.50
2023-11-23T05:30:14.297Z,19.80
2023-11-23T05:32:43.986Z,19.82
2023-11-23T05:35:14.208Z,20.01
2023-11-23T05:37:42.422Z,20.09
2023-11-23T05:40:13.456Z,19.81
2023-11-23T05:42:47.922Z,19.91
2023-11-23T05:45:23.270Z,19.65
2023-11-23T05:47:53.856Z,19.83
2023-11-23T05:50:22.600Z,19.64
2023-11-23T05:52:50.971Z,19.91
2023-11-23T05:55:19.492Z,19.87
2023-11-23T05:57:50.854Z,19.48
2023-11-23T06:00:20.144Z,19.21
2023-11-23T06:02:48.740Z,19.43
2023-11-23T06:05:20.384Z,18.85
2023-11-23T06:07:48.724Z,19.83
2023-11-23T06:10:17.813Z,19.84
2023-11-23T06:12:47.292Z,19.46
2023-11-23T06:15:15.092Z,19.50
2023-11-23T06:17:43.558Z,19.57
2023-11-23T06:20:15.538Z,19.34
2023-11-23T06:22:45.450Z,19.36
2023-11-23T06:25:14.678Z,19.43
2023-11-23T06:27:45.969Z,17.46
2023-11-23T06:30:16.890Z,19.04
2023-11-23T06:32:45.088Z,18.99
2023-11-23T06:35:13.668Z,19.01
2023-11-23T06:37:42.435Z,19.28
2023-11-23T06:40:13.350Z,18.92
2023-11-23T06:42:42.121Z,17.83
2023-11-23T06:45:14.996Z,18.71
2023-11-23T06:47:43.373Z,19.03
2023-11-23T06:50:12.030Z,18.87
2023-11-23T06:52:43.020Z,19.03
2023-11-23T06:55:15.301Z,18.80
2023-11-23T06:57:48.295Z,18.87
2023-11-23T07:00:23.631Z,19.33
2023-11-23T07:02:52.690Z,18.85
2023-11-23T07:05:21.572Z,19.02
2023-11-23T07:07:50.276Z,19.09
2023-11-23T07:10:22.813Z,18.80
2023-11-23T07:12:52.009Z,18.85
2023-11-23T07:15:20.629Z,19.12
2023-11-23T07:17:49.262Z,19.14
2023-11-23T07:20:19.657Z,18.64
2023-11-23T07:22:47.887Z,18.78
2023-11-23T07:25:16.381Z,19.24
2023-11-23T07:27:46.129Z,19.27
2023-11-23T07:30:15.684Z,19.64
2023-11-23T07:32:43.996Z,19.15
2023-11-23T07:35:13.835Z,19.03
2023-11-23T07:37:42.198Z,18.64
2023-11-23T07:40:15.597Z,18.59
2023-11-23T07:42:45.653Z,18.33
2023-11-23T07:45:14.708Z,18.35
2023-11-23T07:47:44.165Z,18.71
2023-11-23T07:50:13.238Z,18.62
2023-11-23T07:52:41.609Z,18.55
2023-11-23T07:55:12.138Z,18.32
2023-11-23T07:57:40.451Z,18.95
2023-11-23T08:00:11.605Z,18.27
2023-11-23T08:02:39.819Z,18.58
2023-11-23T08:05:10.613Z,17.84
2023-11-23T08:07:39.212Z,18.10
2023-11-23T08:10:09.941Z,17.73
2023-11-23T08:12:38.152Z,17.58
2023-11-23T08:15:08.217Z,17.88
2023-11-23T08:17:38.518Z,17.91
2023-11-23T08:20:09.597Z,18.08
2023-11-23T08:22:38.347Z,18.12
2023-11-23T08:25:07.493Z,17.93
2023-11-23T08:27:36.602Z,17.85
2023-11-23T08:30:07.639Z,17.50
2023-11-23T08:32:37.436Z,17.23
2023-11-23T08:35:09.513Z,17.71
2023-11-23T08:37:37.781Z,17.76
2023-11-23T08:40:08.215Z,17.95
2023-11-23T08:42:36.623Z,18.74
2023-11-23T08:45:06.288Z,18.69
2023-11-23T08:47:34.645Z,18.87
2023-11-23T08:50:07.151Z,18.19
2023-11-23T08:52:35.585Z,18.50
2023-11-23T08:55:04.830Z,18.48
2023-11-23T08:57:33.328Z,18.36
2023-11-23T09:00:02.908Z,18.21
2023-11-23T09:02:34.763Z,18.63
2023-11-23T09:05:07.230Z,18.02
2023-11-23T09:07:35.763Z,18.38
2023-11-23T09:10:04.536Z,18.04
2023-11-23T09:12:35.344Z,17.61
2023-11-23T09:15:06.315Z,17.90
2023-11-23T09:17:35.343Z,17.58
2023-11-23T09:20:07.507Z,17.27
2023-11-23T09:22:37.166Z,17.22
2023-11-23T09:25:07.757Z,17.16
2023-11-23T09:27:36.690Z,16.75
2023-11-23T09:30:08.233Z,16.96
2023-11-23T09:32:38.154Z,16.64
2023-11-23T09:35:11.610Z,16.95
2023-11-23T09:37:40.823Z,16.43
2023-11-23T09:40:12.662Z,16.42
2023-11-23T09:42:41.028Z,16.26
2023-11-23T09:45:14.046Z,16.75
2023-11-23T09:47:42.784Z,16.68
2023-11-23T09:50:13.520Z,16.23
2023-11-23T09:52:43.242Z,16.51
2023-11-23T09:55:15.711Z,16.74
2023-11-23T09:57:45.355Z,16.73
2023-11-23T10:00:16.273Z,16.70
2023-11-23T10:02:45.899Z,16.54
2023-11-23T10:05:16.795Z,16.73
2023-11-23T10:07:46.261Z,16.86
2023-11-23T10:10:16.501Z,16.98
2023-11-23T10:12:47.197Z,16.63
2023-11-23T10:15:16.766Z,16.82
2023-11-23T10:17:45.255Z,16.69
2023-11-23T10:20:17.039Z,16.75
2023-11-23T10:22:46.306Z,16.82
2023-11-23T10:25:25.873Z,16.56
2023-11-23T10:27:57.436Z,17.32
2023-11-23T10:30:26.736Z,17.15
2023-11-23T10:32:56.048Z,17.75
2023-11-23T10:35:31.013Z,17.21
2023-11-23T10:37:59.578Z,18.20
2023-11-23T10:40:30.567Z,17.97
2023-11-23T10:43:00.974Z,18.06
2023-11-23T10:45:32.652Z,18.20
2023-11-23T10:48:03.130Z,18.42
2023-11-23T10:50:34.801Z,17.54
2023-11-23T10:53:03.552Z,16.26
2023-11-23T10:55:32.837Z,17.24
2023-11-23T10:58:07.044Z,17.11
2023-11-23T11:00:36.580Z,17.41
2023-11-23T11:03:07.059Z,17.00
2023-11-23T11:05:47.523Z,17.07
2023-11-23T11:08:19.998Z,16.57
2023-11-23T11:10:51.998Z,16.74
2023-11-23T11:13:23.482Z,16.76
2023-11-23T11:15:54.120Z,16.20
2023-11-23T11:18:24.215Z,16.25
2023-11-23T11:21:13.411Z,15.41
2023-11-23T11:23:45.665Z,16.17
2023-11-23T11:26:18.375Z,16.04
2023-11-23T11:28:55.479Z,16.19
2023-11-23T11:31:33.116Z,15.90
2023-11-23T11:34:03.199Z,16.37
2023-11-23T11:36:34.992Z,16.30
2023-11-23T11:39:06.934Z,16.82
2023-11-23T11:41:39.769Z,16.29
2023-11-23T11:44:09.360Z,16.83
2023-11-23T11:46:38.737Z,16.87
2023-11-23T11:49:08.115Z,16.78
2023-11-23T11:51:38.585Z,16.56
2023-11-23T11:54:08.383Z,16.75
2023-11-23T11:56:40.608Z,16.00
2023-11-23T11:59:09.192Z,16.12
2023-11-23T12:01:38.052Z,16.14
2023-11-23T12:04:07.026Z,16.73
2023-11-23T12:06:38.378Z,16.54
2023-11-23T12:09:13.579Z,16.53
2023-11-23T12:11:45.247Z,17.36
2023-11-23T12:14:14.022Z,16.59
2023-11-23T12:16:42.801Z,17.05
2023-11-23T12:19:18.624Z,16.28
2023-11-23T12:21:55.047Z,16.14
2023-11-23T12:24:23.540Z,17.21
2023-11-23T12:26:53.873Z,16.72
2023-11-23T12:29:24.007Z,16.97
2023-11-23T12:31:52.871Z,17.26
2023-11-23T12:34:21.732Z,17.36
2023-11-23T12:36:52.064Z,17.60
2023-11-23T12:39:21.463Z,17.68
2023-11-23T12:41:55.139Z,17.98
2023-11-23T12:44:24.479Z,17.70
2023-11-23T12:46:53.449Z,17.91
2023-11-23T12:49:22.425Z,17.71
2023-11-23T12:51:53.752Z,17.57
2023-11-23T12:54:22.684Z,17.58
2023-11-23T12:56:53.269Z,17.31
2023-11-23T12:59:21.895Z,17.77
2023-11-23T13:01:52.015Z,17.62
2023-11-23T13:04:21.652Z,17.96
2023-11-23T13:06:50.349Z,18.12
2023-11-23T13:09:26.654Z,17.57
2023-11-23T13:11:58.307Z,18.11
2023-11-23T13:14:26.799Z,18.43
2023-11-23T13:16:55.359Z,18.34
2023-11-23T13:19:30.638Z,17.95
2023-11-23T13:22:06.366Z,17.59
2023-11-23T13:24:38.139Z,17.44
2023-11-23T13:27:08.117Z,17.53
2023-11-23T13:29:38.905Z,17.46
2023-11-23T13:32:08.330Z,17.72
2023-11-23T13:34:37.739Z,17.48
2023-11-23T13:37:06.959Z,18.42
2023-11-23T13:39:38.258Z,17.90
2023-11-23T13:42:09.061Z,18.59
2023-11-23T13:44:37.587Z,18.19
2023-11-23T13:47:08.125Z,18.45
2023-11-23T13:49:36.604Z,18.11
2023-11-23T13:52:06.203Z,18.95
2023-11-23T13:54:36.552Z,17.94
2023-11-23T13:57:06.845Z,17.81
2023-11-23T13:59:35.687Z,18.71
2023-11-23T14:02:06.115Z,18.32
2023-11-23T14:04:34.784Z,18.56
2023-11-23T14:07:03.742Z,18.43
2023-11-23T14:09:32.918Z,18.60
2023-11-23T14:12:05.151Z,18.19
2023-11-23T14:14:33.516Z,18.20
2023-11-23T14:17:02.432Z,18.60
2023-11-23T14:19:30.740Z,18.21
2023-11-23T14:22:02.128Z,18.17
2023-11-23T14:24:31.791Z,18.45
2023-11-23T14:27:02.075Z,18.95
2023-11-23T14:29:34.293Z,18.56
2023-11-23T14:32:04.741Z,18.34
2023-11-23T14:34:33.067Z,18.12
2023-11-23T14:37:01.987Z,18.65
2023-11-23T14:39:30.351Z,18.19
2023-11-23T14:41:59.531Z,18.79
2023-11-23T14:44:28.157Z,18.60
2023-11-23T14:46:57.694Z,18.30
2023-11-23T14:49:26.442Z,18.96
2023-11-23T14:51:57.013Z,18.58
2023-11-23T14:54:34.535Z,18.46
2023-11-23T14:57:08.961Z,18.42
2023-11-23T14:59:38.286Z,18.84
2023-11-23T15:02:10.267Z,18.48
2023-11-23T15:04:38.989Z,18.15
2023-11-23T15:07:08.429Z,18.76
2023-11-23T15:09:37.250Z,18.33
2023-11-23T15:12:07.888Z,18.25
2023-11-23T15:14:36.829Z,18.67
2023-11-23T15:17:05.885Z,18.35
2023-11-23T15:19:37.962Z,17.93
2023-11-23T15:22:07.726Z,18.23
2023-11-23T15:24:37.128Z,18.09
2023-11-23T15:27:08.813Z,18.26
2023-11-23T15:29:38.055Z,18.45
2023-11-23T15:32:08.506Z,18.53
2023-11-23T15:34:38.848Z,18.37
2023-11-23T15:37:07.658Z,18.18
2023-11-23T15:39:36.524Z,18.10
2023-11-23T15:42:09.060Z,17.84
2023-11-23T15:44:38.460Z,18.26
2023-11-23T15:47:07.162Z,17.84
2023-11-23T15:49:36.051Z,18.17
2023-11-23T15:52:07.508Z,18.04
2023-11-23T15:54:36.273Z,18.60
2023-11-23T15:57:06.352Z,18.48
2023-11-23T15:59:35.769Z,18.28
2023-11-23T16:02:04.992Z,18.32
2023-11-23T16:04:33.667Z,17.93
2023-11-23T16:07:04.040Z,17.94
2023-11-23T16:09:34.069Z,17.68
2023-11-23T16:12:02.631Z,18.33
2023-11-23T16:14:31.196Z,18.43
2023-11-23T16:17:00.048Z,17.69
2023-11-23T16:19:28.884Z,18.25
2023-11-23T16:21:57.445Z,17.77
2023-11-23T16:24:26.016Z,18.08
2023-11-23T16:26:55.982Z,17.80
2023-11-23T16:29:24.578Z,17.75
2023-11-23T16:31:52.954Z,18.07
2023-11-23T16:34:22.102Z,18.52
2023-11-23T16:36:50.557Z,18.32
2023-11-23T16:39:20.145Z,18.33
2023-11-23T16:41:49.358Z,17.87
2023-11-23T16:44:19.580Z,17.79
2023-11-23T16:46:48.171Z,18.50
2023-11-23T16:49:17.225Z,18.40
2023-11-23T16:51:45.663Z,18.19
2023-11-23T16:54:15.788Z,17.93
2023-11-23T16:56:44.282Z,17.47
2023-11-23T16:59:13.070Z,17.51
2023-11-23T17:01:44.795Z,17.30
2023-11-23T17:04:14.314Z,17.32
2023-11-23T17:06:45.488Z,18.02
2023-11-23T17:09:15.234Z,18.13
2023-11-23T17:11:47.062Z,18.05
2023-11-23T17:14:16.055Z,17.54
2023-11-23T17:16:46.088Z,17.82
2023-11-23T17:19:14.839Z,18.10
2023-11-23T17:21:46.821Z,18.06
2023-11-23T17:24:16.271Z,18.12
2023-11-23T17:26:45.118Z,17.90
2023-11-23T17:29:14.507Z,17.84
2023-11-23T17:31:44.229Z,17.20
2023-11-23T17:34:14.352Z,17.26
2023-11-23T17:36:43.020Z,17.27
2023-11-23T17:39:17.105Z,17.50
2023-11-23T17:41:46.748Z,17.70
2023-11-23T17:44:15.995Z,16.94
2023-11-23T17:46:44.845Z,17.25
2023-11-23T17:49:17.275Z,17.65
2023-11-23T17:51:46.394Z,18.01
2023-11-23T17:54:16.309Z,17.33
2023-11-23T17:56:44.862Z,17.78
2023-11-23T17:59:25.766Z,17.45
2023-11-23T18:02:05.381Z,17.59
2023-11-23T18:04:35.996Z,17.19
2023-11-23T18:07:05.025Z,17.58
2023-11-23T18:09:35.895Z,17.79
2023-11-23T18:12:04.713Z,17.23
2023-11-23T18:14:33.464Z,17.63
2023-11-23T18:17:01.838Z,17.80
2023-11-23T18:19:34.014Z,18.42
2023-11-23T18:22:04.096Z,17.64
2023-11-23T18:24:32.981Z,17.80
2023-11-23T18:27:03.447Z,17.25
2023-11-23T18:29:32.091Z,17.61
2023-11-23T18:32:04.219Z,17.71
2023-11-23T18:34:35.067Z,17.55
2023-11-23T18:37:05.092Z,17.44
2023-11-23T18:39:33.947Z,18.20
2023-11-23T18:42:02.485Z,18.06
2023-11-23T18:44:31.023Z,17.96
2023-11-23T18:47:01.312Z,18.00
2023-11-23T18:49:31.860Z,18.38
2023-11-23T18:52:00.793Z,17.84
2023-11-23T18:54:31.426Z,17.52
2023-11-23T18:57:00.208Z,18.63
2023-11-23T18:59:28.848Z,18.52
2023-11-23T19:01:57.515Z,18.61
2023-11-23T19:04:26.435Z,18.23
2023-11-23T19:06:56.369Z,17.95
2023-11-23T19:09:28.787Z,18.79
2023-11-23T19:11:58.869Z,18.50
2023-11-23T19:14:27.592Z,18.82
2023-11-23T19:16:56.338Z,18.52
2023-11-23T19:19:26.283Z,19.03
2023-11-23T19:21:55.113Z,18.53
2023-11-23T19:24:25.579Z,18.73
2023-11-23T19:26:54.501Z,18.47
2023-11-23T19:29:35.370Z,18.36
2023-11-23T19:32:12.524Z,18.28
2023-11-23T19:34:43.627Z,18.63
2023-11-23T19:37:12.874Z,18.74
2023-11-23T19:39:44.856Z,18.72
2023-11-23T19:42:17.211Z,18.21
2023-11-23T19:44:48.495Z,18.40
2023-11-23T19:47:18.121Z,18.00
2023-11-23T19:49:48.503Z,18.46
2023-11-23T19:52:24.053Z,18.54
2023-11-23T19:54:53.379Z,19.10
2023-11-23T19:57:22.189Z,18.41
2023-11-23T19:59:52.293Z,18.48
2023-11-23T20:02:22.191Z,18.46
2023-11-23T20:04:51.166Z,18.91
2023-11-23T20:07:19.659Z,18.87
2023-11-23T20:09:48.848Z,18.78
2023-11-23T20:12:18.380Z,19.19
2023-11-23T20:14:47.292Z,18.34
2023-11-23T20:17:18.420Z,18.36
2023-11-23T20:19:48.562Z,18.61
2023-11-23T20:22:17.401Z,18.65
2023-11-23T20:24:47.585Z,18.87
2023-11-23T20:27:16.973Z,18.55
2023-11-23T20:29:46.608Z,19.03
2023-11-23T20:32:16.526Z,18.48
2023-11-23T20:34:48.333Z,19.08
2023-11-23T20:37:17.293Z,18.92
2023-11-23T20:39:46.332Z,18.33
2023-11-23T20:42:14.957Z,17.96
2023-11-23T20:44:45.144Z,18.71
2023-11-23T20:47:14.074Z,18.51
2023-11-23T20:49:44.984Z,18.27
2023-11-23T20:52:15.235Z,18.30
2023-11-23T20:54:44.339Z,18.12
2023-11-23T20:57:13.757Z,18.39
2023-11-23T20:59:43.147Z,18.84
2023-11-23T21:02:12.287Z,17.90
2023-11-23T21:04:41.993Z,18.15
2023-11-23T21:07:12.923Z,18.32
2023-11-23T21:09:42.149Z,17.95
2023-11-23T21:12:17.457Z,18.32
2023-11-23T21:14:53.383Z,18.75
2023-11-23T21:17:23.274Z,18.26
2023-11-23T21:19:53.962Z,18.40
2023-11-23T21:22:23.861Z,18.18
2023-11-23T21:24:52.612Z,18.21
2023-11-23T21:27:27.129Z,18.62
2023-11-23T21:29:55.808Z,19.06
2023-11-23T21:32:24.268Z,18.72
2023-11-23T21:34:53.540Z,18.52
2023-11-23T21:37:23.532Z,18.59
2023-11-23T21:39:54.044Z,18.83
2023-11-23T21:42:23.513Z,19.29
2023-11-23T21:44:52.400Z,19.97
2023-11-23T21:47:21.298Z,19.83
2023-11-23T21:49:50.128Z,20.27
2023-11-23T21:52:18.599Z,20.20
2023-11-23T21:54:57.443Z,19.92
2023-11-23T21:57:31.807Z,20.41
2023-11-23T22:00:00.579Z,20.39
2023-11-23T22:02:29.309Z,20.39
2023-11-23T22:04:58.113Z,20.22
2023-11-23T22:07:27.124Z,20.89
2023-11-23T22:09:57.404Z,19.76
2023-11-23T22:12:26.362Z,20.10
2023-11-23T22:14:55.084Z,20.63
2023-11-23T22:17:24.347Z,20.44
2023-11-23T22:19:54.060Z,19.98
2023-11-23T22:22:23.082Z,19.85
2023-11-23T22:24:52.596Z,19.93
2023-11-23T22:27:24.224Z,20.06
2023-11-23T22:29:53.488Z,20.24
2023-11-23T22:32:22.467Z,19.76
2023-11-23T22:34:51.489Z,21.11
2023-11-23T22:37:20.174Z,20.58
2023-11-23T22:39:49.343Z,20.81
2023-11-23T22:42:18.442Z,20.97
2023-11-23T22:44:49.005Z,20.29
2023-11-23T22:47:17.400Z,20.39
2023-11-23T22:49:47.597Z,20.03
2023-11-23T22:52:17.067Z,20.53
2023-11-23T22:54:45.740Z,20.33
2023-11-23T22:57:13.956Z,21.37
2023-11-23T22:59:42.714Z,20.79
2023-11-23T23:02:12.355Z,19.73
2023-11-23T23:04:41.325Z,20.39
2023-11-23T23:07:10.632Z,19.61
2023-11-23T23:09:39.659Z,20.21
2023-11-23T23:12:08.401Z,19.84
2023-11-23T23:14:38.585Z,19.51
2023-11-23T23:17:06.955Z,19.97
2023-11-23T23:19:37.222Z,19.65
2023-11-23T23:22:16.820Z,20.43
2023-11-23T23:24:52.962Z,19.73
2023-11-23T23:27:21.508Z,19.63
2023-11-23T23:29:50.184Z,20.10
2023-11-23T23:32:18.452Z,19.41
2023-11-23T23:34:48.415Z,19.84
2023-11-23T23:37:16.892Z,20.67
2023-11-23T23:39:45.445Z,20.53
2023-11-23T23:42:14.122Z,21.06
2023-11-23T23:44:43.118Z,20.38
2023-11-23T23:47:12.018Z,20.74
2023-11-23T23:49:40.676Z,20.43
2023-11-23T23:52:10.398Z,20.45
2023-11-23T23:54:38.925Z,20.37
2023-11-23T23:57:07.468Z,19.37
2023-11-23T23:59:36.333Z,19.67
